sensor_id;sensor_type;location;lat;lon;timestamp;P1;durP1;ratioP1;P2;durP2;ratioP2
26014;SDS011;13793;55.388;37.844;2022-10-31T00:02:18;1.23;;;0.83;;
26014;SDS011;13793;55.388;37.844;2022-10-31T00:04:49;0.90;;;0.70;;
26014;SDS011;13793;55.388;37.844;2022-10-31T00:07:19;0.90;;;0.70;;
26014;SDS011;13793;55.388;37.844;2022-10-31T00:09:50;2.87;;;0.90;;
26014;SDS011;13793;55.388;37.844;2022-10-31T00:12:20;2.70;;;1.00;;
26014;SDS011;13793;55.388;37.844;2022-10-31T00:14:51;1.23;;;0.90;;
26014;SDS011;13793;55.388;37.844;2022-10-31T00:17:22;2.23;;;1.00;;
26014;SDS011;13793;55.388;37.844;2022-10-31T00:19:52;2.80;;;1.07;;
26014;SDS011;13793;55.388;37.844;2022-10-31T00:22:23;1.27;;;0.73;;
26014;SDS011;13793;55.388;37.844;2022-10-31T00:24:54;1.93;;;0.87;;
26014;SDS011;13793;55.388;37.844;2022-10-31T00:27:27;3.07;;;1.27;;
26014;SDS011;13793;55.388;37.844;2022-10-31T00:29:58;3.53;;;1.00;;
26014;SDS011;13793;55.388;37.844;2022-10-31T00:32:29;3.03;;;1.00;;
26014;SDS011;13793;55.388;37.844;2022-10-31T00:34:59;2.53;;;0.80;;
26014;SDS011;13793;55.388;37.844;2022-10-31T00:37:31;3.27;;;1.10;;
26014;SDS011;13793;55.388;37.844;2022-10-31T00:40:01;2.80;;;0.80;;
26014;SDS011;13793;55.388;37.844;2022-10-31T00:42:31;3.63;;;1.10;;
26014;SDS011;13793;55.388;37.844;2022-10-31T00:45:02;2.03;;;1.00;;
26014;SDS011;13793;55.388;37.844;2022-10-31T00:47:33;0.93;;;0.70;;
26014;SDS011;13793;55.388;37.844;2022-10-31T00:50:04;1.17;;;0.60;;
26014;SDS011;13793;55.388;37.844;2022-10-31T00:52:35;1.60;;;1.10;;
26014;SDS011;13793;55.388;37.844;2022-10-31T00:55:05;2.47;;;0.90;;
26014;SDS011;13793;55.388;37.844;2022-10-31T00:57:36;1.53;;;0.80;;
26014;SDS011;13793;55.388;37.844;2022-10-31T01:00:07;2.90;;;0.93;;
26014;SDS011;13793;55.388;37.844;2022-10-31T01:02:38;1.60;;;0.67;;
26014;SDS011;13793;55.388;37.844;2022-10-31T01:05:09;1.33;;;0.70;;
26014;SDS011;13793;55.388;37.844;2022-10-31T01:07:41;1.03;;;0.70;;
26014;SDS011;13793;55.388;37.844;2022-10-31T01:10:11;2.43;;;0.90;;
26014;SDS011;13793;55.388;37.844;2022-10-31T01:12:43;1.20;;;0.70;;
26014;SDS011;13793;55.388;37.844;2022-10-31T01:15:16;2.37;;;0.80;;
26014;SDS011;13793;55.388;37.844;2022-10-31T01:17:49;2.30;;;0.80;;
26014;SDS011;13793;55.388;37.844;2022-10-31T01:20:19;1.40;;;0.70;;
26014;SDS011;13793;55.388;37.844;2022-10-31T01:22:50;2.40;;;0.87;;
26014;SDS011;13793;55.388;37.844;2022-10-31T01:25:20;2.23;;;0.70;;
26014;SDS011;13793;55.388;37.844;2022-10-31T01:27:51;2.33;;;0.60;;
26014;SDS011;13793;55.388;37.844;2022-10-31T01:30:21;0.87;;;0.50;;
26014;SDS011;13793;55.388;37.844;2022-10-31T01:32:52;1.20;;;1.10;;
26014;SDS011;13793;55.388;37.844;2022-10-31T01:35:22;2.23;;;0.67;;
26014;SDS011;13793;55.388;37.844;2022-10-31T01:37:53;2.67;;;0.60;;
26014;SDS011;13793;55.388;37.844;2022-10-31T01:40:23;3.60;;;0.70;;
26014;SDS011;13793;55.388;37.844;2022-10-31T01:42:56;1.40;;;0.60;;
26014;SDS011;13793;55.388;37.844;2022-10-31T01:45:26;3.10;;;0.70;;
26014;SDS011;13793;55.388;37.844;2022-10-31T01:47:57;0.80;;;0.70;;
26014;SDS011;13793;55.388;37.844;2022-10-31T01:50:28;2.83;;;0.70;;
26014;SDS011;13793;55.388;37.844;2022-10-31T01:53:00;1.97;;;0.70;;
26014;SDS011;13793;55.388;37.844;2022-10-31T01:55:32;2.03;;;0.60;;
26014;SDS011;13793;55.388;37.844;2022-10-31T01:58:08;0.90;;;0.57;;
26014;SDS011;13793;55.388;37.844;2022-10-31T02:00:36;1.20;;;0.67;;
26014;SDS011;13793;55.388;37.844;2022-10-31T02:03:08;3.40;;;0.63;;
26014;SDS011;13793;55.388;37.844;2022-10-31T02:05:39;1.93;;;0.63;;
26014;SDS011;13793;55.388;37.844;2022-10-31T02:08:21;1.40;;;0.60;;
26014;SDS011;13793;55.388;37.844;2022-10-31T02:10:52;1.70;;;0.53;;
26014;SDS011;13793;55.388;37.844;2022-10-31T02:13:28;1.37;;;0.70;;
26014;SDS011;13793;55.388;37.844;2022-10-31T02:15:59;1.30;;;0.70;;
26014;SDS011;13793;55.388;37.844;2022-10-31T02:18:29;1.90;;;0.87;;
26014;SDS011;13793;55.388;37.844;2022-10-31T02:29:50;2.67;;;0.70;;
26014;SDS011;13793;55.388;37.844;2022-10-31T02:32:41;1.97;;;0.80;;
26014;SDS011;13793;55.388;37.844;2022-10-31T02:35:24;1.97;;;0.80;;
26014;SDS011;13793;55.388;37.844;2022-10-31T02:38:16;3.60;;;0.70;;
26014;SDS011;13793;55.388;37.844;2022-10-31T02:40:59;1.23;;;0.70;;
26014;SDS011;13793;55.388;37.844;2022-10-31T02:43:43;1.93;;;0.60;;
26014;SDS011;13793;55.388;37.844;2022-10-31T02:46:28;1.80;;;0.70;;
26014;SDS011;13793;55.388;37.844;2022-10-31T02:49:00;1.60;;;0.87;;
26014;SDS011;13793;55.388;37.844;2022-10-31T02:51:32;2.80;;;1.60;;
26014;SDS011;13793;55.388;37.844;2022-10-31T02:54:04;5.07;;;2.60;;
26014;SDS011;13793;55.388;37.844;2022-10-31T02:56:37;6.43;;;2.77;;
26014;SDS011;13793;55.388;37.844;2022-10-31T02:59:08;4.73;;;2.57;;
26014;SDS011;13793;55.388;37.844;2022-10-31T03:01:54;4.13;;;2.27;;
26014;SDS011;13793;55.388;37.844;2022-10-31T03:12:39;4.42;;;1.62;;
26014;SDS011;13793;55.388;37.844;2022-10-31T03:15:19;3.03;;;1.40;;
26014;SDS011;13793;55.388;37.844;2022-10-31T03:20:50;4.07;;;1.53;;
26014;SDS011;13793;55.388;37.844;2022-10-31T03:23:30;3.00;;;1.40;;
26014;SDS011;13793;55.388;37.844;2022-10-31T03:26:02;2.67;;;1.80;;
26014;SDS011;13793;55.388;37.844;2022-10-31T03:28:37;2.70;;;1.40;;
26014;SDS011;13793;55.388;37.844;2022-10-31T03:31:17;4.20;;;1.20;;
26014;SDS011;13793;55.388;37.844;2022-10-31T03:33:49;3.27;;;1.30;;
26014;SDS011;13793;55.388;37.844;2022-10-31T03:36:20;3.93;;;1.20;;
26014;SDS011;13793;55.388;37.844;2022-10-31T03:38:52;2.83;;;1.40;;
26014;SDS011;13793;55.388;37.844;2022-10-31T03:41:25;3.50;;;1.77;;
26014;SDS011;13793;55.388;37.844;2022-10-31T03:44:04;3.07;;;1.40;;
26014;SDS011;13793;55.388;37.844;2022-10-31T03:46:38;7.77;;;2.40;;
26014;SDS011;13793;55.388;37.844;2022-10-31T03:49:09;5.30;;;2.50;;
26014;SDS011;13793;55.388;37.844;2022-10-31T03:51:45;6.50;;;2.73;;
26014;SDS011;13793;55.388;37.844;2022-10-31T03:54:26;6.23;;;3.47;;
26014;SDS011;13793;55.388;37.844;2022-10-31T03:57:11;4.93;;;2.83;;
26014;SDS011;13793;55.388;37.844;2022-10-31T03:59:54;4.80;;;3.17;;
26014;SDS011;13793;55.388;37.844;2022-10-31T04:02:28;6.17;;;3.07;;
26014;SDS011;13793;55.388;37.844;2022-10-31T04:04:59;5.57;;;3.10;;
26014;SDS011;13793;55.388;37.844;2022-10-31T04:07:33;4.37;;;2.67;;
26014;SDS011;13793;55.388;37.844;2022-10-31T04:10:07;4.90;;;3.03;;
26014;SDS011;13793;55.388;37.844;2022-10-31T04:12:39;3.03;;;1.83;;
26014;SDS011;13793;55.388;37.844;2022-10-31T04:15:13;3.70;;;1.93;;
26014;SDS011;13793;55.388;37.844;2022-10-31T04:17:44;3.20;;;1.80;;
26014;SDS011;13793;55.388;37.844;2022-10-31T04:20:16;3.37;;;1.90;;
26014;SDS011;13793;55.388;37.844;2022-10-31T04:22:47;4.90;;;1.40;;
26014;SDS011;13793;55.388;37.844;2022-10-31T04:25:18;3.23;;;1.70;;
26014;SDS011;13793;55.388;37.844;2022-10-31T04:27:48;2.57;;;1.50;;
26014;SDS011;13793;55.388;37.844;2022-10-31T04:30:19;3.20;;;1.63;;
26014;SDS011;13793;55.388;37.844;2022-10-31T04:32:51;3.10;;;2.10;;
26014;SDS011;13793;55.388;37.844;2022-10-31T04:35:22;4.77;;;1.77;;
26014;SDS011;13793;55.388;37.844;2022-10-31T04:37:53;2.20;;;1.43;;
26014;SDS011;13793;55.388;37.844;2022-10-31T04:40:24;2.70;;;1.47;;
26014;SDS011;13793;55.388;37.844;2022-10-31T04:43:12;4.40;;;1.20;;
26014;SDS011;13793;55.388;37.844;2022-10-31T04:45:44;2.17;;;1.10;;
26014;SDS011;13793;55.388;37.844;2022-10-31T04:48:14;3.17;;;1.43;;
26014;SDS011;13793;55.388;37.844;2022-10-31T04:50:45;3.77;;;1.57;;
26014;SDS011;13793;55.388;37.844;2022-10-31T04:53:16;2.57;;;1.40;;
26014;SDS011;13793;55.388;37.844;2022-10-31T04:55:52;3.37;;;1.67;;
26014;SDS011;13793;55.388;37.844;2022-10-31T04:58:23;4.17;;;1.50;;
26014;SDS011;13793;55.388;37.844;2022-10-31T05:00:54;4.40;;;1.53;;
26014;SDS011;13793;55.388;37.844;2022-10-31T05:03:26;5.17;;;1.50;;
26014;SDS011;13793;55.388;37.844;2022-10-31T05:05:56;2.40;;;1.27;;
26014;SDS011;13793;55.388;37.844;2022-10-31T05:08:26;3.03;;;1.27;;
26014;SDS011;13793;55.388;37.844;2022-10-31T05:11:01;2.93;;;1.70;;
26014;SDS011;13793;55.388;37.844;2022-10-31T05:13:32;1.87;;;1.10;;
26014;SDS011;13793;55.388;37.844;2022-10-31T05:16:17;4.30;;;1.50;;
26014;SDS011;13793;55.388;37.844;2022-10-31T05:19:01;4.67;;;2.00;;
26014;SDS011;13793;55.388;37.844;2022-10-31T05:21:40;6.87;;;2.17;;
26014;SDS011;13793;55.388;37.844;2022-10-31T05:24:11;4.07;;;2.30;;
26014;SDS011;13793;55.388;37.844;2022-10-31T05:26:42;7.87;;;2.60;;
26014;SDS011;13793;55.388;37.844;2022-10-31T05:29:14;4.17;;;1.93;;
26014;SDS011;13793;55.388;37.844;2022-10-31T05:31:47;5.37;;;2.80;;
26014;SDS011;13793;55.388;37.844;2022-10-31T05:34:23;3.30;;;2.10;;
26014;SDS011;13793;55.388;37.844;2022-10-31T05:37:01;9.23;;;3.80;;
26014;SDS011;13793;55.388;37.844;2022-10-31T05:39:31;4.83;;;2.57;;
26014;SDS011;13793;55.388;37.844;2022-10-31T05:42:04;4.13;;;2.10;;
26014;SDS011;13793;55.388;37.844;2022-10-31T05:44:35;13.17;;;4.00;;
26014;SDS011;13793;55.388;37.844;2022-10-31T05:47:17;7.27;;;3.37;;
26014;SDS011;13793;55.388;37.844;2022-10-31T05:49:58;7.83;;;3.57;;
26014;SDS011;13793;55.388;37.844;2022-10-31T05:53:00;16.23;;;4.40;;
26014;SDS011;13793;55.388;37.844;2022-10-31T05:55:28;16.23;;;4.33;;
26014;SDS011;13793;55.388;37.844;2022-10-31T05:58:00;4.53;;;2.07;;
26014;SDS011;13793;55.388;37.844;2022-10-31T06:00:31;4.10;;;2.70;;
26014;SDS011;13793;55.388;37.844;2022-10-31T06:03:05;4.17;;;2.00;;
26014;SDS011;13793;55.388;37.844;2022-10-31T06:05:51;2.00;;;1.60;;
26014;SDS011;13793;55.388;37.844;2022-10-31T06:08:21;3.50;;;1.27;;
26014;SDS011;13793;55.388;37.844;2022-10-31T06:10:52;3.00;;;1.30;;
26014;SDS011;13793;55.388;37.844;2022-10-31T06:13:24;3.97;;;1.47;;
26014;SDS011;13793;55.388;37.844;2022-10-31T06:15:56;2.83;;;1.30;;
26014;SDS011;13793;55.388;37.844;2022-10-31T06:18:29;3.17;;;1.20;;
26014;SDS011;13793;55.388;37.844;2022-10-31T06:21:00;2.93;;;1.43;;
26014;SDS011;13793;55.388;37.844;2022-10-31T06:23:31;3.23;;;1.20;;
26014;SDS011;13793;55.388;37.844;2022-10-31T06:26:03;2.90;;;1.40;;
26014;SDS011;13793;55.388;37.844;2022-10-31T06:28:34;4.00;;;1.40;;
26014;SDS011;13793;55.388;37.844;2022-10-31T06:31:06;4.07;;;1.60;;
26014;SDS011;13793;55.388;37.844;2022-10-31T06:33:37;2.63;;;1.20;;
26014;SDS011;13793;55.388;37.844;2022-10-31T06:36:07;4.23;;;1.43;;
26014;SDS011;13793;55.388;37.844;2022-10-31T06:38:38;3.57;;;1.60;;
26014;SDS011;13793;55.388;37.844;2022-10-31T06:41:10;5.30;;;1.63;;
26014;SDS011;13793;55.388;37.844;2022-10-31T06:43:51;1.73;;;1.13;;
26014;SDS011;13793;55.388;37.844;2022-10-31T06:46:29;2.53;;;1.70;;
26014;SDS011;13793;55.388;37.844;2022-10-31T06:49:01;2.97;;;1.67;;
26014;SDS011;13793;55.388;37.844;2022-10-31T06:51:43;3.60;;;1.63;;
26014;SDS011;13793;55.388;37.844;2022-10-31T06:54:15;2.30;;;1.40;;
26014;SDS011;13793;55.388;37.844;2022-10-31T06:56:46;3.37;;;1.50;;
26014;SDS011;13793;55.388;37.844;2022-10-31T06:59:17;2.50;;;1.47;;
26014;SDS011;13793;55.388;37.844;2022-10-31T07:01:49;3.00;;;1.43;;
26014;SDS011;13793;55.388;37.844;2022-10-31T07:04:20;1.83;;;1.60;;
26014;SDS011;13793;55.388;37.844;2022-10-31T07:06:51;2.13;;;1.60;;
26014;SDS011;13793;55.388;37.844;2022-10-31T07:09:22;1.60;;;1.40;;
26014;SDS011;13793;55.388;37.844;2022-10-31T07:11:54;2.80;;;1.37;;
26014;SDS011;13793;55.388;37.844;2022-10-31T07:14:25;1.87;;;1.60;;
26014;SDS011;13793;55.388;37.844;2022-10-31T07:16:55;2.00;;;1.63;;
26014;SDS011;13793;55.388;37.844;2022-10-31T07:19:28;3.40;;;1.53;;
26014;SDS011;13793;55.388;37.844;2022-10-31T07:21:58;4.10;;;2.00;;
26014;SDS011;13793;55.388;37.844;2022-10-31T07:24:29;2.70;;;1.90;;
26014;SDS011;13793;55.388;37.844;2022-10-31T07:27:17;2.60;;;2.10;;
26014;SDS011;13793;55.388;37.844;2022-10-31T07:29:49;2.70;;;1.90;;
26014;SDS011;13793;55.388;37.844;2022-10-31T07:32:19;2.90;;;1.90;;
26014;SDS011;13793;55.388;37.844;2022-10-31T07:34:51;3.63;;;2.10;;
26014;SDS011;13793;55.388;37.844;2022-10-31T07:37:26;4.13;;;2.30;;
26014;SDS011;13793;55.388;37.844;2022-10-31T07:39:57;5.43;;;2.97;;
26014;SDS011;13793;55.388;37.844;2022-10-31T07:42:29;4.57;;;2.53;;
26014;SDS011;13793;55.388;37.844;2022-10-31T07:45:01;3.60;;;2.50;;
26014;SDS011;13793;55.388;37.844;2022-10-31T07:50:38;5.20;;;2.63;;
26014;SDS011;13793;55.388;37.844;2022-10-31T07:53:25;4.62;;;2.40;;
26014;SDS011;13793;55.388;37.844;2022-10-31T07:56:04;5.00;;;2.67;;
26014;SDS011;13793;55.388;37.844;2022-10-31T07:58:35;4.53;;;2.87;;
26014;SDS011;13793;55.388;37.844;2022-10-31T08:01:06;6.10;;;2.80;;
26014;SDS011;13793;55.388;37.844;2022-10-31T08:03:38;3.70;;;2.50;;
26014;SDS011;13793;55.388;37.844;2022-10-31T08:06:13;3.63;;;2.40;;
26014;SDS011;13793;55.388;37.844;2022-10-31T08:09:02;2.83;;;2.20;;
26014;SDS011;13793;55.388;37.844;2022-10-31T08:11:32;5.07;;;2.60;;
26014;SDS011;13793;55.388;37.844;2022-10-31T08:14:03;4.93;;;2.40;;
26014;SDS011;13793;55.388;37.844;2022-10-31T08:16:35;3.30;;;2.30;;
26014;SDS011;13793;55.388;37.844;2022-10-31T08:19:06;4.53;;;2.40;;
26014;SDS011;13793;55.388;37.844;2022-10-31T08:21:39;4.73;;;2.47;;
26014;SDS011;13793;55.388;37.844;2022-10-31T08:24:09;2.33;;;2.13;;
26014;SDS011;13793;55.388;37.844;2022-10-31T08:26:40;2.70;;;2.07;;
26014;SDS011;13793;55.388;37.844;2022-10-31T08:29:11;3.73;;;1.80;;
26014;SDS011;13793;55.388;37.844;2022-10-31T08:31:42;3.93;;;2.00;;
26014;SDS011;13793;55.388;37.844;2022-10-31T08:37:18;1.90;;;1.70;;
26014;SDS011;13793;55.388;37.844;2022-10-31T08:39:50;3.43;;;2.03;;
26014;SDS011;13793;55.388;37.844;2022-10-31T08:42:22;4.27;;;2.03;;
26014;SDS011;13793;55.388;37.844;2022-10-31T08:44:52;4.67;;;2.33;;
26014;SDS011;13793;55.388;37.844;2022-10-31T08:47:23;3.70;;;2.67;;
26014;SDS011;13793;55.388;37.844;2022-10-31T08:49:54;3.40;;;1.80;;
26014;SDS011;13793;55.388;37.844;2022-10-31T08:52:25;2.60;;;2.07;;
26014;SDS011;13793;55.388;37.844;2022-10-31T08:54:57;2.57;;;1.83;;
26014;SDS011;13793;55.388;37.844;2022-10-31T08:57:41;2.30;;;1.30;;
26014;SDS011;13793;55.388;37.844;2022-10-31T09:00:13;1.27;;;1.10;;
26014;SDS011;13793;55.388;37.844;2022-10-31T09:02:45;1.43;;;1.10;;
26014;SDS011;13793;55.388;37.844;2022-10-31T09:05:16;1.30;;;1.13;;
26014;SDS011;13793;55.388;37.844;2022-10-31T09:07:46;2.60;;;1.40;;
26014;SDS011;13793;55.388;37.844;2022-10-31T09:10:17;2.87;;;1.60;;
26014;SDS011;13793;55.388;37.844;2022-10-31T09:12:53;4.13;;;1.77;;
26014;SDS011;13793;55.388;37.844;2022-10-31T09:15:48;1.77;;;1.50;;
26014;SDS011;13793;55.388;37.844;2022-10-31T09:18:21;2.10;;;1.50;;
26014;SDS011;13793;55.388;37.844;2022-10-31T09:21:00;3.97;;;1.77;;
26014;SDS011;13793;55.388;37.844;2022-10-31T09:23:31;3.20;;;1.70;;
26014;SDS011;13793;55.388;37.844;2022-10-31T09:26:02;2.47;;;1.70;;
26014;SDS011;13793;55.388;37.844;2022-10-31T09:28:40;2.20;;;1.70;;
26014;SDS011;13793;55.388;37.844;2022-10-31T09:31:17;3.00;;;1.73;;
26014;SDS011;13793;55.388;37.844;2022-10-31T09:33:52;3.47;;;1.80;;
26014;SDS011;13793;55.388;37.844;2022-10-31T09:36:24;2.53;;;2.03;;
26014;SDS011;13793;55.388;37.844;2022-10-31T09:38:55;2.70;;;1.73;;
26014;SDS011;13793;55.388;37.844;2022-10-31T09:41:29;4.63;;;1.80;;
26014;SDS011;13793;55.388;37.844;2022-10-31T09:44:18;3.43;;;1.93;;
26014;SDS011;13793;55.388;37.844;2022-10-31T09:50:06;5.77;;;1.90;;
26014;SDS011;13793;55.388;37.844;2022-10-31T09:52:57;3.60;;;1.67;;
26014;SDS011;13793;55.388;37.844;2022-10-31T09:55:44;3.20;;;1.60;;
26014;SDS011;13793;55.388;37.844;2022-10-31T09:58:18;2.53;;;1.80;;
26014;SDS011;13793;55.388;37.844;2022-10-31T10:00:50;2.57;;;1.70;;
26014;SDS011;13793;55.388;37.844;2022-10-31T10:03:33;2.10;;;1.40;;
26014;SDS011;13793;55.388;37.844;2022-10-31T10:06:11;2.10;;;1.60;;
26014;SDS011;13793;55.388;37.844;2022-10-31T10:08:42;3.03;;;1.80;;
26014;SDS011;13793;55.388;37.844;2022-10-31T10:11:19;3.23;;;1.80;;
26014;SDS011;13793;55.388;37.844;2022-10-31T10:14:29;4.07;;;2.27;;
26014;SDS011;13793;55.388;37.844;2022-10-31T10:17:08;3.57;;;2.17;;
26014;SDS011;13793;55.388;37.844;2022-10-31T10:19:50;3.10;;;2.00;;
26014;SDS011;13793;55.388;37.844;2022-10-31T10:25:15;2.83;;;1.77;;
26014;SDS011;13793;55.388;37.844;2022-10-31T10:30:45;2.03;;;1.50;;
26014;SDS011;13793;55.388;37.844;2022-10-31T10:33:19;2.67;;;1.50;;
26014;SDS011;13793;55.388;37.844;2022-10-31T10:35:52;2.50;;;1.30;;
26014;SDS011;13793;55.388;37.844;2022-10-31T10:40:59;2.30;;;1.13;;
26014;SDS011;13793;55.388;37.844;2022-10-31T10:43:42;2.90;;;1.53;;
26014;SDS011;13793;55.388;37.844;2022-10-31T10:54:45;2.93;;;1.50;;
26014;SDS011;13793;55.388;37.844;2022-10-31T11:00:29;6.00;;;1.67;;
26014;SDS011;13793;55.388;37.844;2022-10-31T11:03:00;3.67;;;1.70;;
26014;SDS011;13793;55.388;37.844;2022-10-31T11:08:28;2.70;;;1.17;;
26014;SDS011;13793;55.388;37.844;2022-10-31T11:11:03;3.77;;;1.40;;
26014;SDS011;13793;55.388;37.844;2022-10-31T11:13:36;2.97;;;1.20;;
26014;SDS011;13793;55.388;37.844;2022-10-31T11:16:12;2.93;;;1.43;;
26014;SDS011;13793;55.388;37.844;2022-10-31T11:18:42;2.40;;;1.40;;
26014;SDS011;13793;55.388;37.844;2022-10-31T11:21:26;3.40;;;1.50;;
26014;SDS011;13793;55.388;37.844;2022-10-31T11:24:07;1.13;;;0.90;;
26014;SDS011;13793;55.388;37.844;2022-10-31T11:26:40;2.90;;;1.50;;
26014;SDS011;13793;55.388;37.844;2022-10-31T11:29:24;1.93;;;1.07;;
26014;SDS011;13793;55.388;37.844;2022-10-31T11:31:55;2.00;;;1.30;;
26014;SDS011;13793;55.388;37.844;2022-10-31T11:39:45;1.90;;;1.30;;
26014;SDS011;13793;55.388;37.844;2022-10-31T11:42:20;3.03;;;1.20;;
26014;SDS011;13793;55.388;37.844;2022-10-31T11:44:52;1.70;;;1.20;;
26014;SDS011;13793;55.388;37.844;2022-10-31T11:47:28;4.43;;;1.90;;
26014;SDS011;13793;55.388;37.844;2022-10-31T11:52:31;4.83;;;2.37;;
26014;SDS011;13793;55.388;37.844;2022-10-31T11:57:49;3.70;;;2.30;;
26014;SDS011;13793;55.388;37.844;2022-10-31T12:00:21;11.83;;;7.37;;
26014;SDS011;13793;55.388;37.844;2022-10-31T12:05:44;10.53;;;6.60;;
26014;SDS011;13793;55.388;37.844;2022-10-31T12:08:15;3.80;;;2.70;;
26014;SDS011;13793;55.388;37.844;2022-10-31T12:10:58;25.20;;;14.70;;
26014;SDS011;13793;55.388;37.844;2022-10-31T12:13:37;50.10;;;30.00;;
26014;SDS011;13793;55.388;37.844;2022-10-31T12:24:31;45.80;;;28.30;;
26014;SDS011;13793;55.388;37.844;2022-10-31T12:27:09;58.07;;;33.27;;
26014;SDS011;13793;55.388;37.844;2022-10-31T12:32:32;58.97;;;31.27;;
26014;SDS011;13793;55.388;37.844;2022-10-31T12:35:17;10.27;;;6.57;;
26014;SDS011;13793;55.388;37.844;2022-10-31T12:40:26;25.50;;;15.63;;
26014;SDS011;13793;55.388;37.844;2022-10-31T12:46:07;30.47;;;16.03;;
26014;SDS011;13793;55.388;37.844;2022-10-31T12:57:10;10.73;;;5.03;;
26014;SDS011;13793;55.388;37.844;2022-10-31T13:10:48;18.53;;;9.43;;
26014;SDS011;13793;55.388;37.844;2022-10-31T13:13:23;11.93;;;4.83;;
26014;SDS011;13793;55.388;37.844;2022-10-31T13:16:20;69.37;;;37.47;;
26014;SDS011;13793;55.388;37.844;2022-10-31T13:24:16;49.00;;;29.67;;
26014;SDS011;13793;55.388;37.844;2022-10-31T13:26:48;46.50;;;28.53;;
26014;SDS011;13793;55.388;37.844;2022-10-31T13:32:12;85.00;;;52.07;;
26014;SDS011;13793;55.388;37.844;2022-10-31T13:34:45;25.57;;;16.90;;
26014;SDS011;13793;55.388;37.844;2022-10-31T13:40:19;23.47;;;16.20;;
26014;SDS011;13793;55.388;37.844;2022-10-31T13:42:51;12.20;;;8.43;;
26014;SDS011;13793;55.388;37.844;2022-10-31T13:45:47;6.43;;;4.80;;
26014;SDS011;13793;55.388;37.844;2022-10-31T13:50:57;5.80;;;3.00;;
26014;SDS011;13793;55.388;37.844;2022-10-31T13:56:17;5.23;;;2.90;;
26014;SDS011;13793;55.388;37.844;2022-10-31T13:58:59;3.30;;;2.50;;
26014;SDS011;13793;55.388;37.844;2022-10-31T14:01:34;4.97;;;3.10;;
26014;SDS011;13793;55.388;37.844;2022-10-31T14:04:14;7.27;;;3.57;;
26014;SDS011;13793;55.388;37.844;2022-10-31T14:06:45;6.07;;;3.27;;
26014;SDS011;13793;55.388;37.844;2022-10-31T14:09:51;7.70;;;4.00;;
26014;SDS011;13793;55.388;37.844;2022-10-31T14:12:27;4.60;;;2.83;;
26014;SDS011;13793;55.388;37.844;2022-10-31T14:15:29;2.93;;;2.33;;
26014;SDS011;13793;55.388;37.844;2022-10-31T14:18:00;4.72;;;3.55;;
26014;SDS011;13793;55.388;37.844;2022-10-31T14:20:41;4.13;;;2.00;;
26014;SDS011;13793;55.388;37.844;2022-10-31T14:26:18;3.23;;;2.00;;
26014;SDS011;13793;55.388;37.844;2022-10-31T14:28:54;3.17;;;2.10;;
26014;SDS011;13793;55.388;37.844;2022-10-31T14:31:38;2.87;;;2.27;;
26014;SDS011;13793;55.388;37.844;2022-10-31T14:34:21;3.23;;;1.80;;
26014;SDS011;13793;55.388;37.844;2022-10-31T14:42:49;2.83;;;1.83;;
26014;SDS011;13793;55.388;37.844;2022-10-31T14:47:58;3.00;;;2.30;;
26014;SDS011;13793;55.388;37.844;2022-10-31T14:50:44;2.80;;;1.70;;
26014;SDS011;13793;55.388;37.844;2022-10-31T14:55:55;2.87;;;1.27;;
26014;SDS011;13793;55.388;37.844;2022-10-31T14:58:37;2.77;;;1.70;;
26014;SDS011;13793;55.388;37.844;2022-10-31T15:04:04;2.33;;;1.53;;
26014;SDS011;13793;55.388;37.844;2022-10-31T15:06:43;5.40;;;1.87;;
26014;SDS011;13793;55.388;37.844;2022-10-31T15:09:28;6.10;;;2.30;;
26014;SDS011;13793;55.388;37.844;2022-10-31T15:12:00;2.40;;;1.67;;
26014;SDS011;13793;55.388;37.844;2022-10-31T15:14:32;3.37;;;1.77;;
26014;SDS011;13793;55.388;37.844;2022-10-31T15:17:03;3.10;;;1.80;;
26014;SDS011;13793;55.388;37.844;2022-10-31T15:19:33;5.63;;;1.60;;
26014;SDS011;13793;55.388;37.844;2022-10-31T15:22:07;2.00;;;1.40;;
26014;SDS011;13793;55.388;37.844;2022-10-31T15:24:42;3.50;;;1.93;;
26014;SDS011;13793;55.388;37.844;2022-10-31T15:27:14;1.90;;;1.57;;
26014;SDS011;13793;55.388;37.844;2022-10-31T15:29:53;2.17;;;1.90;;
26014;SDS011;13793;55.388;37.844;2022-10-31T15:32:25;2.93;;;2.03;;
26014;SDS011;13793;55.388;37.844;2022-10-31T15:34:56;3.50;;;2.07;;
26014;SDS011;13793;55.388;37.844;2022-10-31T15:37:31;3.70;;;2.17;;
26014;SDS011;13793;55.388;37.844;2022-10-31T15:40:12;6.00;;;3.77;;
26014;SDS011;13793;55.388;37.844;2022-10-31T15:42:54;5.60;;;3.30;;
26014;SDS011;13793;55.388;37.844;2022-10-31T15:45:32;4.73;;;2.03;;
26014;SDS011;13793;55.388;37.844;2022-10-31T15:48:03;3.57;;;1.77;;
26014;SDS011;13793;55.388;37.844;2022-10-31T15:50:46;2.47;;;2.07;;
26014;SDS011;13793;55.388;37.844;2022-10-31T15:53:25;2.17;;;1.67;;
26014;SDS011;13793;55.388;37.844;2022-10-31T15:56:00;2.97;;;1.77;;
26014;SDS011;13793;55.388;37.844;2022-10-31T15:58:42;2.67;;;1.90;;
26014;SDS011;13793;55.388;37.844;2022-10-31T16:01:21;3.40;;;2.03;;
26014;SDS011;13793;55.388;37.844;2022-10-31T16:04:05;2.30;;;1.70;;
26014;SDS011;13793;55.388;37.844;2022-10-31T16:06:41;2.57;;;1.80;;
26014;SDS011;13793;55.388;37.844;2022-10-31T16:09:22;3.83;;;1.83;;
26014;SDS011;13793;55.388;37.844;2022-10-31T16:11:53;2.43;;;1.70;;
26014;SDS011;13793;55.388;37.844;2022-10-31T16:14:27;3.57;;;1.93;;
26014;SDS011;13793;55.388;37.844;2022-10-31T16:16:58;6.43;;;2.43;;
26014;SDS011;13793;55.388;37.844;2022-10-31T16:19:32;3.33;;;2.10;;
26014;SDS011;13793;55.388;37.844;2022-10-31T16:22:05;2.27;;;1.90;;
26014;SDS011;13793;55.388;37.844;2022-10-31T16:24:45;3.30;;;2.20;;
26014;SDS011;13793;55.388;37.844;2022-10-31T16:27:19;3.10;;;2.27;;
26014;SDS011;13793;55.388;37.844;2022-10-31T16:29:50;4.47;;;2.23;;
26014;SDS011;13793;55.388;37.844;2022-10-31T16:32:28;2.27;;;1.73;;
26014;SDS011;13793;55.388;37.844;2022-10-31T16:37:43;2.10;;;1.63;;
26014;SDS011;13793;55.388;37.844;2022-10-31T16:40:14;4.77;;;1.90;;
26014;SDS011;13793;55.388;37.844;2022-10-31T16:42:45;3.77;;;2.20;;
26014;SDS011;13793;55.388;37.844;2022-10-31T16:45:21;5.10;;;2.00;;
26014;SDS011;13793;55.388;37.844;2022-10-31T16:48:01;3.47;;;1.70;;
26014;SDS011;13793;55.388;37.844;2022-10-31T16:50:32;3.90;;;1.92;;
26014;SDS011;13793;55.388;37.844;2022-10-31T16:53:03;3.73;;;1.80;;
26014;SDS011;13793;55.388;37.844;2022-10-31T16:55:34;3.70;;;1.60;;
26014;SDS011;13793;55.388;37.844;2022-10-31T16:58:09;1.83;;;1.40;;
26014;SDS011;13793;55.388;37.844;2022-10-31T17:00:45;3.70;;;1.80;;
26014;SDS011;13793;55.388;37.844;2022-10-31T17:03:16;2.60;;;1.50;;
26014;SDS011;13793;55.388;37.844;2022-10-31T17:05:46;6.23;;;1.90;;
26014;SDS011;13793;55.388;37.844;2022-10-31T17:08:17;3.33;;;1.73;;
26014;SDS011;13793;55.388;37.844;2022-10-31T17:10:49;5.33;;;3.20;;
26014;SDS011;13793;55.388;37.844;2022-10-31T17:13:21;3.67;;;2.10;;
26014;SDS011;13793;55.388;37.844;2022-10-31T17:15:54;3.57;;;2.10;;
26014;SDS011;13793;55.388;37.844;2022-10-31T17:18:26;2.80;;;1.87;;
26014;SDS011;13793;55.388;37.844;2022-10-31T17:20:57;3.23;;;1.70;;
26014;SDS011;13793;55.388;37.844;2022-10-31T17:23:29;4.40;;;2.00;;
26014;SDS011;13793;55.388;37.844;2022-10-31T17:26:00;5.20;;;1.90;;
26014;SDS011;13793;55.388;37.844;2022-10-31T17:28:31;6.10;;;1.70;;
26014;SDS011;13793;55.388;37.844;2022-10-31T17:31:02;2.73;;;1.50;;
26014;SDS011;13793;55.388;37.844;2022-10-31T17:33:32;2.93;;;1.80;;
26014;SDS011;13793;55.388;37.844;2022-10-31T17:36:03;4.70;;;1.63;;